Latest Coastal Weather Observations for Mandora

IDW60701

Issued at 11:35 pm WST Saturday 25 October 2014 (issued every 10 minutes, with the page automatically refreshed every 10 minutes)

About coastal observations | Map of coastal stations | Coastal observations for WA | Marine services | Other Formats
Station Details ID: 004019 Name: MANDORA Lat: -19.74 Lon: 120.84 Height: 7.5 m
Data from the previous 72 hours. | See also: Recent months at Mandora
Date/Time
WST
Temp

°C
Wind Pressure Rain
since 9am
mm
Weather Cloud Vis
km
Sea
Height
m
Swell
Dir
 
Speed
knots
Gust
knots
hPa Trend Height
m
Period
s
Dir
25/11:30pm 24.0 WNW 4 6 1011.3 - 0.0 - - - - - - -
25/11:00pm 24.0 N 6 7 1011.6 - 0.0 - - - - - - -
25/10:30pm 24.2 N 5 7 1012.8 - 0.0 - - - - - - -
25/10:00pm 25.3 WSW 5 6 1013.4 - 0.0 - - - - - - -
25/09:30pm 25.7 SSW 9 14 1013.9 - 0.0 - - - - - - -
25/09:00pm 24.2 N 2 5 1012.7 - 0.0 - - - - - - -
25/08:30pm 24.8 W 4 5 1012.5 - 0.0 - - - - - - -
25/08:00pm 25.3 WNW 5 6 1012.2 - 0.0 - - - - - - -
25/07:30pm 25.5 NW 5 7 1011.8 - 0.0 - - - - - - -
25/07:00pm 25.8 NW 6 8 1011.7 - 0.0 - - - - - - -
25/06:30pm 26.4 NW 7 11 1011.5 - 0.0 - - - - - - -
25/06:00pm 26.9 NW 10 13 1011.1 - 0.0 - - - - - - -
25/05:30pm 27.7 NNW 9 13 1010.9 - 0.0 - - - - - - -
25/05:00pm 28.5 NW 10 13 1010.6 - 0.0 - - - - - - -
25/04:30pm 28.8 NNW 10 13 1010.8 - 0.0 - - - - - - -
25/04:00pm 29.1 NNW 12 16 1010.4 - 0.0 - - - - - - -
25/03:30pm 29.7 NNW 11 16 1010.4 - 0.0 - - - - - - -
25/03:00pm 30.0 NNW 11 17 1010.5 - 0.0 - - - - - - -
25/02:30pm 30.6 NNW 10 15 1010.7 - 0.0 - - - - - - -
25/02:00pm 30.6 NNW 10 15 1011.1 - 0.0 - - - - - - -
25/01:30pm 30.9 NNW 9 13 1011.3 - 0.0 - - - - - - -
25/01:00pm 31.4 NNW 9 14 1011.6 - 0.0 - - - - - - -
25/12:30pm 30.6 NNW 10 15 1012.2 - 0.0 - - - - - - -
25/12:00pm 30.5 N 11 16 1012.3 - 0.0 - - - - - - -
25/11:30am 30.3 N 10 16 1012.7 - 0.0 - - - - - - -
25/11:00am 30.6 N 9 15 1012.7 - 0.0 - - - - - - -
25/10:30am 31.3 N 8 13 1012.9 - 0.0 - - - - - - -
25/10:00am 31.2 N 7 10 1013.0 - 0.0 - - - - - - -
25/09:30am 31.0 N 5 8 1013.0 - 0.0 - - - - - - -
25/09:00am 30.7 N 5 10 1013.1 - 0.0 - - - - - - -
25/08:30am 29.5 W 3 5 1013.4 - 0.0 - - - - - - -
25/08:00am 28.2 WSW 2 5 1013.5 - 0.0 - - - - - - -
25/07:30am 26.9 NE 3 5 1013.5 - 0.0 - - - - - - -
25/07:00am 25.2 SE 4 6 1013.4 - 0.0 - - - - - - -
25/06:30am 23.6 ESE 5 6 1013.3 - 0.0 - - - - - - -
25/06:00am 22.3 SSE 3 4 1012.9 - 0.0 - - - - - - -
25/05:30am 21.9 SE 4 5 1012.8 - 0.0 - - - - - - -
25/05:00am 21.8 ESE 3 4 1012.6 - 0.0 - - - - - - -
25/04:30am 22.0 ESE 1 3 1012.2 - 0.0 - - - - - - -
25/04:00am 22.3 E 4 6 1011.9 - 0.0 - - - - - - -
25/03:30am 22.5 ESE 5 6 1011.4 - 0.0 - - - - - - -
25/03:00am 22.7 ENE 1 4 1010.9 - 0.0 - - - - - - -
25/02:30am 23.2 ENE 4 5 1011.1 - 0.0 - - - - - - -
25/02:00am 23.5 E 5 7 1011.3 - 0.0 - - - - - - -
25/01:30am 24.5 SW 4 6 1011.3 - 0.0 - - - - - - -
25/01:00am 24.9 W 7 10 1011.4 - 0.0 - - - - - - -
25/12:30am 25.0 W 5 8 1011.8 - 0.0 - - - - - - -
25/12:00am 25.0 WNW 8 11 1011.4 - 0.0 - - - - - - -
 
Date/Time
WST
Temp

°C
Wind Pressure Rain
since 9am
mm
Weather Cloud Vis
km
Sea
Height
m
Swell
Dir
 
Speed
knots
Gust
knots
hPa Trend Height
m
Period
s
Dir
24/11:30pm 25.0 NW 8 11 1011.8 - 0.0 - - - - - - -
24/11:00pm 24.5 NW 5 7 1012.2 - 0.0 - - - - - - -
24/10:30pm 24.7 NNW 5 7 1012.3 - 0.0 - - - - - - -
24/10:00pm 25.0 WNW 5 7 1012.3 - 0.0 - - - - - - -
24/09:30pm 25.1 NW 6 8 1012.0 - 0.0 - - - - - - -
24/09:00pm 25.3 WNW 6 9 1011.9 - 0.0 - - - - - - -
24/08:30pm 25.5 WNW 7 11 1011.8 - 0.0 - - - - - - -
24/08:00pm 25.7 NW 8 10 1011.6 - 0.0 - - - - - - -
24/07:30pm 25.9 NW 9 12 1011.2 - 0.0 - - - - - - -
24/07:00pm 26.1 NW 8 11 1010.8 - 0.0 - - - - - - -
24/06:30pm 26.3 NW 9 13 1010.6 - 0.0 - - - - - - -
24/06:00pm 26.7 NNW 10 14 1010.1 - 0.0 - - - - - - -
24/05:30pm 27.6 NW 10 15 1009.8 - 0.0 - - - - - - -
24/05:00pm 28.0 NW 11 16 1009.7 - 0.0 - - - - - - -
24/04:30pm 29.1 NW 10 15 1009.7 - 0.0 - - - - - - -
24/04:00pm 30.0 NW 12 16 1009.6 - 0.0 - - - - - - -
24/03:30pm 30.1 NNW 12 18 1009.7 - 0.0 - - - - - - -
24/03:00pm 30.3 NNW 13 17 1009.5 - 0.0 - - - - - - -
24/02:30pm 30.4 NNW 12 17 1009.9 - 0.0 - - - - - - -
24/02:00pm 30.7 NNW 13 19 1010.1 - 0.0 - - - - - - -
24/01:30pm 30.5 N 13 17 1010.3 - 0.0 - - - - - - -
24/01:00pm 31.4 N 12 18 1010.6 - 0.0 - - - - - - -
24/12:30pm 31.4 N 12 17 1010.8 - 0.0 - - - - - - -
24/12:00pm 31.7 N 11 15 1010.8 - 0.0 - - - - - - -
24/11:30am 31.3 N 10 15 1011.1 - 0.0 - - - - - - -
24/11:00am 31.8 N 11 15 1011.3 - 0.0 - - - - - - -
24/10:30am 31.6 N 9 14 1011.5 - 0.0 - - - - - - -
24/10:00am 31.2 N 9 13 1011.7 - 0.0 - - - - - - -
24/09:30am 30.5 N 10 13 1011.8 - 0.0 - - - - - - -
24/09:00am 30.5 NE 5 10 1011.8 - 0.0 - - - - - - -
24/08:30am 29.8 E 5 7 1012.1 - 0.0 - - - - - - -
24/08:00am 28.5 ENE 3 6 1011.9 - 0.0 - - - - - - -
24/07:30am 26.9 E 5 7 1011.8 - 0.0 - - - - - - -
24/07:00am 25.0 E 4 7 1011.8 - 0.0 - - - - - - -
24/06:30am 23.6 SE 3 5 1011.8 - 0.0 - - - - - - -
24/06:00am 22.7 ESE 4 5 1011.2 - 0.0 - - - - - - -
24/05:30am 22.5 ESE 5 6 1011.1 - 0.0 - - - - - - -
24/05:00am 21.1 SSE 5 6 1010.6 - 0.0 - - - - - - -
24/04:30am 20.9 ESE 3 4 1010.3 - 0.0 - - - - - - -
24/04:00am 20.7 ESE 3 4 1010.2 - 0.0 - - - - - - -
24/03:30am 21.1 CALM 0 0 1009.9 - 0.0 - - - - - - -
24/03:00am 21.2 CALM 0 2 1009.8 - 0.0 - - - - - - -
24/02:30am 21.3 E 3 5 1010.0 - 0.0 - - - - - - -
24/02:00am 21.6 ENE 4 6 1010.0 - 0.0 - - - - - - -
24/01:30am 22.1 NE 4 5 1009.9 - 0.0 - - - - - - -
24/01:00am 21.8 CALM 0 3 1010.2 - 0.0 - - - - - - -
24/12:30am 22.6 N 4 5 1010.3 - 0.0 - - - - - - -
24/12:00am 22.8 CALM 0 2 1010.6 - 0.0 - - - - - - -
 
Date/Time
WST
Temp

°C
Wind Pressure Rain
since 9am
mm
Weather Cloud Vis
km
Sea
Height
m
Swell
Dir
 
Speed
knots
Gust
knots
hPa Trend Height
m
Period
s
Dir
23/11:30pm 22.7 N 3 4 1011.0 - 0.0 - - - - - - -
23/11:00pm 23.2 NE 4 6 1011.1 - 0.0 - - - - - - -
23/10:30pm 22.8 NE 6 7 1011.6 - 0.0 - - - - - - -
23/10:00pm 23.3 E 2 4 1012.4 - 0.0 - - - - - - -
23/09:30pm 24.2 E 1 3 1012.4 - 0.0 - - - - - - -
23/09:00pm 24.8 SSE 4 6 1012.7 - 0.0 - - - - - - -
23/08:30pm 25.2 E 2 5 1012.5 - 0.0 - - - - - - -
23/08:00pm 25.7 E 4 6 1012.3 - 0.0 - - - - - - -
23/07:30pm 25.8 ENE 5 7 1012.1 - 0.0 - - - - - - -
23/07:00pm 25.7 NE 4 5 1011.2 - 0.0 - - - - - - -
23/06:30pm 26.3 NNE 6 8 1010.6 - 0.0 - - - - - - -
23/06:00pm 26.9 N 8 10 1010.0 - 0.0 - - - - - - -
23/05:30pm 27.6 N 8 11 1009.5 - 0.0 - - - - - - -
23/05:00pm 28.4 N 8 11 1009.1 - 0.0 - - - - - - -
23/04:30pm 29.0 N 9 13 1008.7 - 0.0 - - - - - - -
23/04:00pm 29.7 N 11 14 1008.6 - 0.0 - - - - - - -
23/03:30pm 30.2 N 10 13 1008.8 - 0.0 - - - - - - -
23/03:00pm 31.3 N 10 15 1008.8 - 0.0 - - - - - - -
23/02:30pm 31.6 N 9 13 1008.9 - 0.0 - - - - - - -
23/02:00pm 30.2 N 10 15 1009.1 - 0.0 - - - - - - -
23/01:30pm 30.7 N 11 15 1009.2 - 0.0 - - - - - - -
23/01:00pm 30.3 N 10 15 1009.4 - 0.0 - - - - - - -
23/12:30pm 30.7 N 11 16 1009.9 - 0.0 - - - - - - -
23/12:00pm 30.7 N 11 14 1009.8 - 0.0 - - - - - - -
23/11:30am 30.5 N 11 16 1010.1 - 0.0 - - - - - - -
23/11:00am 30.5 N 11 16 1010.4 - 0.0 - - - - - - -
23/10:30am 31.4 NNE 10 17 1010.5 - 0.0 - - - - - - -
23/10:00am 32.5 NNE 11 17 1010.5 - 0.0 - - - - - - -
23/09:30am 34.9 ENE 7 11 1010.6 - 0.0 - - - - - - -
23/09:00am 33.9 E 5 10 1010.5 - 0.0 - - - - - - -
23/08:30am 32.0 E 5 7 1010.5 - 0.0 - - - - - - -
23/08:00am 29.0 NE 2 4 1010.6 - 0.0 - - - - - - -
23/07:30am 28.1 NE 4 6 1010.4 - 0.0 - - - - - - -
23/07:00am 26.3 E 2 4 1010.2 - 0.0 - - - - - - -
23/06:30am 24.4 E 2 5 1010.1 - 0.0 - - - - - - -
23/06:00am 22.7 SSW 5 6 1009.5 - 0.0 - - - - - - -
23/05:30am 22.7 S 6 9 1009.3 - 0.0 - - - - - - -
23/05:00am 22.0 S 4 7 1008.9 - 0.0 - - - - - - -
23/04:30am 21.7 S 4 7 1008.5 - 0.0 - - - - - - -
23/04:00am 22.1 S 4 6 1008.6 - 0.0 - - - - - - -
23/03:30am 22.4 S 3 5 1008.4 - 0.0 - - - - - - -
23/03:00am 23.1 ESE 1 4 1008.5 - 0.0 - - - - - - -
23/02:30am 23.5 CALM 0 0 1008.8 - 0.0 - - - - - - -
23/02:00am 23.9 CALM 0 2 1009.0 - 0.0 - - - - - - -
23/01:30am 24.7 N 4 6 1009.1 - 0.0 - - - - - - -
23/01:00am 24.9 N 5 6 1009.3 - 0.0 - - - - - - -
23/12:30am 25.8 NNW 4 5 1009.7 - 0.0 - - - - - - -
23/12:00am 26.3 N 4 6 1010.0 - 0.0 - - - - - - -

Other Formats:

Comma delimited format used in spreadsheet applications
http://www.bom.gov.au/fwo/IDW60701/IDW60701.94200.axf

JavaScript Object Notation format (JSON) in row-major order
http://www.bom.gov.au/fwo/IDW60701/IDW60701.94200.json